sensor_id;sensor_type;location;lat;lon;timestamp;temperature;humidity
57652;DHT22;43480;53.116;6.734;2024-02-28T00:02:00;2.80;99.90
57652;DHT22;43480;53.116;6.734;2024-02-28T00:04:25;2.70;99.90
57652;DHT22;43480;53.116;6.734;2024-02-28T00:06:51;2.80;99.90
57652;DHT22;43480;53.116;6.734;2024-02-28T00:09:17;2.70;99.90
57652;DHT22;43480;53.116;6.734;2024-02-28T00:11:43;2.70;99.90
57652;DHT22;43480;53.116;6.734;2024-02-28T00:14:10;2.70;99.90
57652;DHT22;43480;53.116;6.734;2024-02-28T00:16:36;2.70;99.90
57652;DHT22;43480;53.116;6.734;2024-02-28T00:19:02;2.70;99.90
57652;DHT22;43480;53.116;6.734;2024-02-28T00:21:28;2.70;99.90
57652;DHT22;43480;53.116;6.734;2024-02-28T00:23:53;2.70;99.90
57652;DHT22;43480;53.116;6.734;2024-02-28T00:26:19;2.70;99.90
57652;DHT22;43480;53.116;6.734;2024-02-28T00:28:44;2.70;99.90
57652;DHT22;43480;53.116;6.734;2024-02-28T00:31:10;2.70;99.90
57652;DHT22;43480;53.116;6.734;2024-02-28T00:33:36;2.80;99.90
57652;DHT22;43480;53.116;6.734;2024-02-28T00:36:01;2.80;99.90
57652;DHT22;43480;53.116;6.734;2024-02-28T00:38:27;2.80;99.90
57652;DHT22;43480;53.116;6.734;2024-02-28T00:40:53;2.80;99.90
57652;DHT22;43480;53.116;6.734;2024-02-28T00:43:19;2.90;99.90
57652;DHT22;43480;53.116;6.734;2024-02-28T00:45:44;2.90;99.90
57652;DHT22;43480;53.116;6.734;2024-02-28T00:48:10;2.90;99.90
57652;DHT22;43480;53.116;6.734;2024-02-28T00:50:35;2.90;99.90
57652;DHT22;43480;53.116;6.734;2024-02-28T00:53:01;2.90;99.90
57652;DHT22;43480;53.116;6.734;2024-02-28T00:55:27;2.90;99.90
57652;DHT22;43480;53.116;6.734;2024-02-28T00:57:53;2.90;99.90
57652;DHT22;43480;53.116;6.734;2024-02-28T01:00:19;2.90;99.90
57652;DHT22;43480;53.116;6.734;2024-02-28T01:02:45;2.90;99.90
57652;DHT22;43480;53.116;6.734;2024-02-28T01:05:10;2.90;99.90
57652;DHT22;43480;53.116;6.734;2024-02-28T01:07:36;2.90;99.90
57652;DHT22;43480;53.116;6.734;2024-02-28T01:10:02;2.90;99.90
57652;DHT22;43480;53.116;6.734;2024-02-28T01:12:28;3.00;99.90
57652;DHT22;43480;53.116;6.734;2024-02-28T01:14:54;2.90;99.90
57652;DHT22;43480;53.116;6.734;2024-02-28T01:17:19;2.90;99.90
57652;DHT22;43480;53.116;6.734;2024-02-28T01:19:45;2.90;99.90
57652;DHT22;43480;53.116;6.734;2024-02-28T01:22:11;2.90;99.90
57652;DHT22;43480;53.116;6.734;2024-02-28T01:24:36;2.90;99.90
57652;DHT22;43480;53.116;6.734;2024-02-28T01:27:02;3.00;99.90
57652;DHT22;43480;53.116;6.734;2024-02-28T01:29:28;2.90;99.90
57652;DHT22;43480;53.116;6.734;2024-02-28T01:31:55;2.90;99.90
57652;DHT22;43480;53.116;6.734;2024-02-28T01:34:21;2.90;99.90
57652;DHT22;43480;53.116;6.734;2024-02-28T01:36:47;2.90;99.90
57652;DHT22;43480;53.116;6.734;2024-02-28T01:39:13;2.90;99.90
57652;DHT22;43480;53.116;6.734;2024-02-28T01:41:39;2.90;99.90
57652;DHT22;43480;53.116;6.734;2024-02-28T01:44:05;2.90;99.90
57652;DHT22;43480;53.116;6.734;2024-02-28T01:46:31;2.90;99.90
57652;DHT22;43480;53.116;6.734;2024-02-28T01:48:58;2.90;99.90
57652;DHT22;43480;53.116;6.734;2024-02-28T01:51:25;2.90;99.90
57652;DHT22;43480;53.116;6.734;2024-02-28T01:53:53;2.90;99.90
57652;DHT22;43480;53.116;6.734;2024-02-28T01:56:20;2.90;99.90
57652;DHT22;43480;53.116;6.734;2024-02-28T01:58:47;2.90;99.90
57652;DHT22;43480;53.116;6.734;2024-02-28T02:01:16;2.90;99.90
57652;DHT22;43480;53.116;6.734;2024-02-28T02:03:45;2.90;99.90
57652;DHT22;43480;53.116;6.734;2024-02-28T02:06:11;2.90;99.90
57652;DHT22;43480;53.116;6.734;2024-02-28T02:08:38;2.90;99.90
57652;DHT22;43480;53.116;6.734;2024-02-28T02:11:04;2.90;99.90
57652;DHT22;43480;53.116;6.734;2024-02-28T02:13:31;2.90;99.90
57652;DHT22;43480;53.116;6.734;2024-02-28T02:15:56;2.90;99.90
57652;DHT22;43480;53.116;6.734;2024-02-28T02:18:22;2.90;99.90
57652;DHT22;43480;53.116;6.734;2024-02-28T02:20:50;3.00;99.90
57652;DHT22;43480;53.116;6.734;2024-02-28T02:23:19;3.00;99.90
57652;DHT22;43480;53.116;6.734;2024-02-28T02:25:49;3.00;99.90
57652;DHT22;43480;53.116;6.734;2024-02-28T02:28:15;3.00;99.90
57652;DHT22;43480;53.116;6.734;2024-02-28T02:30:41;3.00;99.90
57652;DHT22;43480;53.116;6.734;2024-02-28T02:33:07;3.00;99.90
57652;DHT22;43480;53.116;6.734;2024-02-28T02:35:34;3.00;99.90
57652;DHT22;43480;53.116;6.734;2024-02-28T02:38:00;3.00;99.90
57652;DHT22;43480;53.116;6.734;2024-02-28T02:40:26;2.90;99.90
57652;DHT22;43480;53.116;6.734;2024-02-28T02:42:51;2.90;99.90
57652;DHT22;43480;53.116;6.734;2024-02-28T02:45:17;2.90;99.90
57652;DHT22;43480;53.116;6.734;2024-02-28T02:47:43;2.90;99.90
57652;DHT22;43480;53.116;6.734;2024-02-28T02:50:12;2.90;99.90
57652;DHT22;43480;53.116;6.734;2024-02-28T02:52:38;2.90;99.90
57652;DHT22;43480;53.116;6.734;2024-02-28T02:55:04;2.80;99.90
57652;DHT22;43480;53.116;6.734;2024-02-28T02:57:30;2.70;99.90
57652;DHT22;43480;53.116;6.734;2024-02-28T02:59:56;2.80;99.90
57652;DHT22;43480;53.116;6.734;2024-02-28T03:02:22;2.80;99.90
57652;DHT22;43480;53.116;6.734;2024-02-28T03:04:48;2.70;99.90
57652;DHT22;43480;53.116;6.734;2024-02-28T03:07:13;2.70;99.90
57652;DHT22;43480;53.116;6.734;2024-02-28T03:09:39;2.80;99.90
57652;DHT22;43480;53.116;6.734;2024-02-28T03:12:05;2.80;99.90
57652;DHT22;43480;53.116;6.734;2024-02-28T03:14:30;2.80;99.90
57652;DHT22;43480;53.116;6.734;2024-02-28T03:16:56;2.80;99.90
57652;DHT22;43480;53.116;6.734;2024-02-28T03:19:22;2.80;99.90
57652;DHT22;43480;53.116;6.734;2024-02-28T03:21:48;2.90;99.90
57652;DHT22;43480;53.116;6.734;2024-02-28T03:24:13;2.90;99.90
57652;DHT22;43480;53.116;6.734;2024-02-28T03:26:39;2.90;99.90
57652;DHT22;43480;53.116;6.734;2024-02-28T03:29:05;2.90;99.90
57652;DHT22;43480;53.116;6.734;2024-02-28T03:31:30;2.90;99.90
57652;DHT22;43480;53.116;6.734;2024-02-28T03:33:56;2.90;99.90
57652;DHT22;43480;53.116;6.734;2024-02-28T03:36:22;2.90;99.90
57652;DHT22;43480;53.116;6.734;2024-02-28T03:38:47;2.90;99.90
57652;DHT22;43480;53.116;6.734;2024-02-28T03:41:13;2.90;99.90
57652;DHT22;43480;53.116;6.734;2024-02-28T03:43:39;2.90;99.90
57652;DHT22;43480;53.116;6.734;2024-02-28T03:46:05;2.90;99.90
57652;DHT22;43480;53.116;6.734;2024-02-28T03:48:30;2.90;99.90
57652;DHT22;43480;53.116;6.734;2024-02-28T03:50:56;2.90;99.90
57652;DHT22;43480;53.116;6.734;2024-02-28T03:53:22;2.90;99.90
57652;DHT22;43480;53.116;6.734;2024-02-28T03:55:47;3.00;99.90
57652;DHT22;43480;53.116;6.734;2024-02-28T03:58:13;3.00;99.90
57652;DHT22;43480;53.116;6.734;2024-02-28T04:00:39;3.00;99.90
57652;DHT22;43480;53.116;6.734;2024-02-28T04:03:05;2.90;99.90
57652;DHT22;43480;53.116;6.734;2024-02-28T04:05:31;2.90;99.90
57652;DHT22;43480;53.116;6.734;2024-02-28T04:07:57;2.90;99.90
57652;DHT22;43480;53.116;6.734;2024-02-28T04:10:22;2.90;99.90
57652;DHT22;43480;53.116;6.734;2024-02-28T04:12:48;2.90;99.90
57652;DHT22;43480;53.116;6.734;2024-02-28T04:15:14;3.00;99.90
57652;DHT22;43480;53.116;6.734;2024-02-28T04:17:40;3.00;99.90
57652;DHT22;43480;53.116;6.734;2024-02-28T04:20:12;3.00;99.90
57652;DHT22;43480;53.116;6.734;2024-02-28T04:22:38;3.00;99.90
57652;DHT22;43480;53.116;6.734;2024-02-28T04:25:05;3.00;99.90
57652;DHT22;43480;53.116;6.734;2024-02-28T04:27:31;3.00;99.90
57652;DHT22;43480;53.116;6.734;2024-02-28T04:29:56;3.00;99.90
57652;DHT22;43480;53.116;6.734;2024-02-28T04:32:22;3.10;99.90
57652;DHT22;43480;53.116;6.734;2024-02-28T04:34:48;3.10;99.90
57652;DHT22;43480;53.116;6.734;2024-02-28T04:37:13;3.10;99.90
57652;DHT22;43480;53.116;6.734;2024-02-28T04:39:40;3.10;99.90
57652;DHT22;43480;53.116;6.734;2024-02-28T04:42:06;3.10;99.90
57652;DHT22;43480;53.116;6.734;2024-02-28T04:44:32;3.10;99.90
57652;DHT22;43480;53.116;6.734;2024-02-28T04:46:57;3.10;99.90
57652;DHT22;43480;53.116;6.734;2024-02-28T04:49:23;3.10;99.90
57652;DHT22;43480;53.116;6.734;2024-02-28T04:51:48;3.20;99.90
57652;DHT22;43480;53.116;6.734;2024-02-28T04:54:14;3.20;99.90
57652;DHT22;43480;53.116;6.734;2024-02-28T04:56:43;3.20;99.90
57652;DHT22;43480;53.116;6.734;2024-02-28T04:59:12;3.20;99.90
57652;DHT22;43480;53.116;6.734;2024-02-28T05:01:40;3.30;99.90
57652;DHT22;43480;53.116;6.734;2024-02-28T05:04:07;3.20;99.90
57652;DHT22;43480;53.116;6.734;2024-02-28T05:06:33;3.20;99.90
57652;DHT22;43480;53.116;6.734;2024-02-28T05:08:59;3.30;99.90
57652;DHT22;43480;53.116;6.734;2024-02-28T05:11:25;3.30;99.90
57652;DHT22;43480;53.116;6.734;2024-02-28T05:13:51;3.30;99.90
57652;DHT22;43480;53.116;6.734;2024-02-28T05:16:16;3.30;99.90
57652;DHT22;43480;53.116;6.734;2024-02-28T05:18:44;3.20;99.90
57652;DHT22;43480;53.116;6.734;2024-02-28T05:21:10;3.30;99.90
57652;DHT22;43480;53.116;6.734;2024-02-28T05:23:36;3.30;99.90
57652;DHT22;43480;53.116;6.734;2024-02-28T05:26:02;3.40;99.90
57652;DHT22;43480;53.116;6.734;2024-02-28T05:28:30;3.40;99.90
57652;DHT22;43480;53.116;6.734;2024-02-28T05:30:56;3.50;99.90
57652;DHT22;43480;53.116;6.734;2024-02-28T05:33:22;3.50;99.90
57652;DHT22;43480;53.116;6.734;2024-02-28T05:35:48;3.40;99.90
57652;DHT22;43480;53.116;6.734;2024-02-28T05:38:14;3.50;99.90
57652;DHT22;43480;53.116;6.734;2024-02-28T05:40:41;3.50;99.90
57652;DHT22;43480;53.116;6.734;2024-02-28T05:43:07;3.50;99.90
57652;DHT22;43480;53.116;6.734;2024-02-28T05:45:33;3.50;99.90
57652;DHT22;43480;53.116;6.734;2024-02-28T05:47:59;3.50;99.90
57652;DHT22;43480;53.116;6.734;2024-02-28T05:50:25;3.50;99.90
57652;DHT22;43480;53.116;6.734;2024-02-28T05:52:50;3.50;99.90
57652;DHT22;43480;53.116;6.734;2024-02-28T05:55:17;3.50;99.90
57652;DHT22;43480;53.116;6.734;2024-02-28T05:57:43;3.50;99.90
57652;DHT22;43480;53.116;6.734;2024-02-28T06:00:08;3.50;99.90
57652;DHT22;43480;53.116;6.734;2024-02-28T06:02:38;3.50;99.90
57652;DHT22;43480;53.116;6.734;2024-02-28T06:05:04;3.50;99.90
57652;DHT22;43480;53.116;6.734;2024-02-28T06:07:30;3.50;99.90
57652;DHT22;43480;53.116;6.734;2024-02-28T06:09:56;3.50;99.90
57652;DHT22;43480;53.116;6.734;2024-02-28T06:12:22;3.50;99.90
57652;DHT22;43480;53.116;6.734;2024-02-28T06:14:48;3.50;99.90
57652;DHT22;43480;53.116;6.734;2024-02-28T06:17:14;3.50;99.90
57652;DHT22;43480;53.116;6.734;2024-02-28T06:19:39;3.60;99.90
57652;DHT22;43480;53.116;6.734;2024-02-28T06:22:05;3.60;99.90
57652;DHT22;43480;53.116;6.734;2024-02-28T06:24:34;3.60;99.90
57652;DHT22;43480;53.116;6.734;2024-02-28T06:27:00;3.60;99.90
57652;DHT22;43480;53.116;6.734;2024-02-28T06:29:25;3.50;99.90
57652;DHT22;43480;53.116;6.734;2024-02-28T06:31:51;3.60;99.90
57652;DHT22;43480;53.116;6.734;2024-02-28T06:34:17;3.60;99.90
57652;DHT22;43480;53.116;6.734;2024-02-28T06:36:44;3.60;99.90
57652;DHT22;43480;53.116;6.734;2024-02-28T06:39:10;3.60;99.90
57652;DHT22;43480;53.116;6.734;2024-02-28T06:41:35;3.60;99.90
57652;DHT22;43480;53.116;6.734;2024-02-28T06:44:01;3.60;99.90
57652;DHT22;43480;53.116;6.734;2024-02-28T06:46:27;3.70;99.90
57652;DHT22;43480;53.116;6.734;2024-02-28T06:48:52;3.70;99.90
57652;DHT22;43480;53.116;6.734;2024-02-28T06:51:18;3.70;99.90
57652;DHT22;43480;53.116;6.734;2024-02-28T06:53:44;3.70;99.90
57652;DHT22;43480;53.116;6.734;2024-02-28T06:56:10;3.80;99.90
57652;DHT22;43480;53.116;6.734;2024-02-28T06:58:35;3.80;99.90
57652;DHT22;43480;53.116;6.734;2024-02-28T07:01:01;3.80;99.90
57652;DHT22;43480;53.116;6.734;2024-02-28T07:03:27;3.80;99.90
57652;DHT22;43480;53.116;6.734;2024-02-28T07:05:52;3.90;99.90
57652;DHT22;43480;53.116;6.734;2024-02-28T07:08:20;3.90;99.90
57652;DHT22;43480;53.116;6.734;2024-02-28T07:10:46;3.90;99.90
57652;DHT22;43480;53.116;6.734;2024-02-28T07:13:15;4.00;99.90
57652;DHT22;43480;53.116;6.734;2024-02-28T07:15:40;4.00;99.90
57652;DHT22;43480;53.116;6.734;2024-02-28T07:18:07;4.00;99.90
57652;DHT22;43480;53.116;6.734;2024-02-28T07:20:33;4.00;99.90
57652;DHT22;43480;53.116;6.734;2024-02-28T07:22:59;4.00;99.90
57652;DHT22;43480;53.116;6.734;2024-02-28T07:25:25;4.00;99.90
57652;DHT22;43480;53.116;6.734;2024-02-28T07:27:50;4.10;99.90
57652;DHT22;43480;53.116;6.734;2024-02-28T07:30:16;4.00;99.90
57652;DHT22;43480;53.116;6.734;2024-02-28T07:32:42;4.10;99.90
57652;DHT22;43480;53.116;6.734;2024-02-28T07:35:07;4.10;99.90
57652;DHT22;43480;53.116;6.734;2024-02-28T07:37:33;4.20;99.90
57652;DHT22;43480;53.116;6.734;2024-02-28T07:39:59;4.20;99.90
57652;DHT22;43480;53.116;6.734;2024-02-28T07:42:25;4.20;99.90
57652;DHT22;43480;53.116;6.734;2024-02-28T07:44:51;4.20;99.90
57652;DHT22;43480;53.116;6.734;2024-02-28T07:47:22;4.30;99.90
57652;DHT22;43480;53.116;6.734;2024-02-28T07:49:48;4.30;99.90
57652;DHT22;43480;53.116;6.734;2024-02-28T07:52:15;4.30;99.90
57652;DHT22;43480;53.116;6.734;2024-02-28T07:54:43;4.30;99.90
57652;DHT22;43480;53.116;6.734;2024-02-28T07:57:09;4.40;99.90
57652;DHT22;43480;53.116;6.734;2024-02-28T07:59:42;4.40;99.90
57652;DHT22;43480;53.116;6.734;2024-02-28T08:02:08;4.40;99.90
57652;DHT22;43480;53.116;6.734;2024-02-28T08:04:33;4.50;99.90
57652;DHT22;43480;53.116;6.734;2024-02-28T08:07:00;4.40;99.90
57652;DHT22;43480;53.116;6.734;2024-02-28T08:09:25;4.50;99.90
57652;DHT22;43480;53.116;6.734;2024-02-28T08:11:54;4.50;99.90
57652;DHT22;43480;53.116;6.734;2024-02-28T08:14:20;4.60;99.90
57652;DHT22;43480;53.116;6.734;2024-02-28T08:16:46;4.60;99.90
57652;DHT22;43480;53.116;6.734;2024-02-28T08:19:11;4.60;99.90
57652;DHT22;43480;53.116;6.734;2024-02-28T08:21:37;4.60;99.90
57652;DHT22;43480;53.116;6.734;2024-02-28T08:24:03;4.70;99.90
57652;DHT22;43480;53.116;6.734;2024-02-28T08:26:33;4.70;99.90
57652;DHT22;43480;53.116;6.734;2024-02-28T08:28:58;4.70;99.90
57652;DHT22;43480;53.116;6.734;2024-02-28T08:31:24;4.70;99.90
57652;DHT22;43480;53.116;6.734;2024-02-28T08:33:50;4.80;99.90
57652;DHT22;43480;53.116;6.734;2024-02-28T08:36:15;4.70;99.90
57652;DHT22;43480;53.116;6.734;2024-02-28T08:38:41;4.90;99.90
57652;DHT22;43480;53.116;6.734;2024-02-28T08:41:07;4.80;99.90
57652;DHT22;43480;53.116;6.734;2024-02-28T08:43:40;4.80;99.90
57652;DHT22;43480;53.116;6.734;2024-02-28T08:46:06;4.80;99.90
57652;DHT22;43480;53.116;6.734;2024-02-28T08:48:32;4.80;99.90
57652;DHT22;43480;53.116;6.734;2024-02-28T08:50:58;4.80;99.90
57652;DHT22;43480;53.116;6.734;2024-02-28T08:53:24;4.90;99.90
57652;DHT22;43480;53.116;6.734;2024-02-28T08:55:49;4.90;99.90
57652;DHT22;43480;53.116;6.734;2024-02-28T08:58:15;4.90;99.90
57652;DHT22;43480;53.116;6.734;2024-02-28T09:00:41;5.00;99.90
57652;DHT22;43480;53.116;6.734;2024-02-28T09:03:06;5.00;99.90
57652;DHT22;43480;53.116;6.734;2024-02-28T09:05:32;5.00;99.90
57652;DHT22;43480;53.116;6.734;2024-02-28T09:07:58;5.00;99.90
57652;DHT22;43480;53.116;6.734;2024-02-28T09:10:23;5.10;99.90
57652;DHT22;43480;53.116;6.734;2024-02-28T09:12:52;5.10;99.90
57652;DHT22;43480;53.116;6.734;2024-02-28T09:15:19;5.20;99.90
57652;DHT22;43480;53.116;6.734;2024-02-28T09:17:44;5.20;99.90
57652;DHT22;43480;53.116;6.734;2024-02-28T09:20:11;5.30;99.90
57652;DHT22;43480;53.116;6.734;2024-02-28T09:22:37;5.40;99.90
57652;DHT22;43480;53.116;6.734;2024-02-28T09:25:03;5.50;99.90
57652;DHT22;43480;53.116;6.734;2024-02-28T09:27:32;5.60;99.90
57652;DHT22;43480;53.116;6.734;2024-02-28T09:29:58;5.70;99.90
57652;DHT22;43480;53.116;6.734;2024-02-28T09:32:24;5.80;99.90
57652;DHT22;43480;53.116;6.734;2024-02-28T09:34:49;5.90;99.90
57652;DHT22;43480;53.116;6.734;2024-02-28T09:37:15;6.00;99.90
57652;DHT22;43480;53.116;6.734;2024-02-28T09:39:42;6.10;99.90
57652;DHT22;43480;53.116;6.734;2024-02-28T09:42:09;6.30;99.90
57652;DHT22;43480;53.116;6.734;2024-02-28T09:44:36;6.50;99.90
57652;DHT22;43480;53.116;6.734;2024-02-28T09:47:02;6.50;99.90
57652;DHT22;43480;53.116;6.734;2024-02-28T09:49:31;6.60;99.90
57652;DHT22;43480;53.116;6.734;2024-02-28T09:51:57;6.70;99.90
57652;DHT22;43480;53.116;6.734;2024-02-28T09:54:23;6.70;99.90
57652;DHT22;43480;53.116;6.734;2024-02-28T09:56:49;6.70;99.90
57652;DHT22;43480;53.116;6.734;2024-02-28T09:59:18;6.80;99.90
57652;DHT22;43480;53.116;6.734;2024-02-28T10:01:57;6.80;99.90
57652;DHT22;43480;53.116;6.734;2024-02-28T10:04:26;6.80;99.90
57652;DHT22;43480;53.116;6.734;2024-02-28T10:06:56;6.80;99.90
57652;DHT22;43480;53.116;6.734;2024-02-28T10:09:22;6.80;99.90
57652;DHT22;43480;53.116;6.734;2024-02-28T10:11:48;6.80;99.90
57652;DHT22;43480;53.116;6.734;2024-02-28T10:14:18;6.80;99.90
57652;DHT22;43480;53.116;6.734;2024-02-28T10:16:46;6.80;99.90
57652;DHT22;43480;53.116;6.734;2024-02-28T10:19:12;6.80;99.90
57652;DHT22;43480;53.116;6.734;2024-02-28T10:21:38;6.80;99.90
57652;DHT22;43480;53.116;6.734;2024-02-28T10:24:05;6.80;99.90
57652;DHT22;43480;53.116;6.734;2024-02-28T10:26:30;6.80;99.90
57652;DHT22;43480;53.116;6.734;2024-02-28T10:29:03;6.80;99.90
57652;DHT22;43480;53.116;6.734;2024-02-28T10:31:32;6.90;99.90
57652;DHT22;43480;53.116;6.734;2024-02-28T10:33:57;6.90;99.90
57652;DHT22;43480;53.116;6.734;2024-02-28T10:36:24;7.00;99.90
57652;DHT22;43480;53.116;6.734;2024-02-28T10:38:49;7.00;99.90
57652;DHT22;43480;53.116;6.734;2024-02-28T10:41:15;7.10;99.90
57652;DHT22;43480;53.116;6.734;2024-02-28T10:43:41;7.10;99.90
57652;DHT22;43480;53.116;6.734;2024-02-28T10:46:09;7.10;99.90
57652;DHT22;43480;53.116;6.734;2024-02-28T10:48:34;7.20;99.90
57652;DHT22;43480;53.116;6.734;2024-02-28T10:51:03;7.30;99.90
57652;DHT22;43480;53.116;6.734;2024-02-28T10:53:36;7.40;99.90
57652;DHT22;43480;53.116;6.734;2024-02-28T10:56:06;7.40;99.90
57652;DHT22;43480;53.116;6.734;2024-02-28T10:58:49;7.50;99.90
57652;DHT22;43480;53.116;6.734;2024-02-28T11:01:16;7.50;99.90
57652;DHT22;43480;53.116;6.734;2024-02-28T11:03:42;7.50;99.90
57652;DHT22;43480;53.116;6.734;2024-02-28T11:06:21;7.50;99.90
57652;DHT22;43480;53.116;6.734;2024-02-28T11:08:48;7.50;99.90
57652;DHT22;43480;53.116;6.734;2024-02-28T11:11:18;7.60;99.90
57652;DHT22;43480;53.116;6.734;2024-02-28T11:13:56;7.60;99.90
57652;DHT22;43480;53.116;6.734;2024-02-28T11:16:33;7.60;99.90
57652;DHT22;43480;53.116;6.734;2024-02-28T11:18:59;7.70;99.90
57652;DHT22;43480;53.116;6.734;2024-02-28T11:21:29;7.60;99.90
57652;DHT22;43480;53.116;6.734;2024-02-28T11:23:59;7.60;99.90
57652;DHT22;43480;53.116;6.734;2024-02-28T11:26:25;7.60;99.90
57652;DHT22;43480;53.116;6.734;2024-02-28T11:28:54;7.70;99.90
57652;DHT22;43480;53.116;6.734;2024-02-28T11:31:20;7.70;99.90
57652;DHT22;43480;53.116;6.734;2024-02-28T11:33:46;7.70;99.90
57652;DHT22;43480;53.116;6.734;2024-02-28T11:36:12;7.80;99.90
57652;DHT22;43480;53.116;6.734;2024-02-28T11:38:41;7.90;99.90
57652;DHT22;43480;53.116;6.734;2024-02-28T11:41:07;7.90;99.90
57652;DHT22;43480;53.116;6.734;2024-02-28T11:43:33;7.90;99.90
57652;DHT22;43480;53.116;6.734;2024-02-28T11:46:08;7.80;99.90
57652;DHT22;43480;53.116;6.734;2024-02-28T11:48:35;7.80;99.90
57652;DHT22;43480;53.116;6.734;2024-02-28T11:51:00;7.80;99.90
57652;DHT22;43480;53.116;6.734;2024-02-28T11:53:26;7.80;99.90
57652;DHT22;43480;53.116;6.734;2024-02-28T11:55:53;8.00;99.90
57652;DHT22;43480;53.116;6.734;2024-02-28T11:58:18;8.10;99.90
57652;DHT22;43480;53.116;6.734;2024-02-28T12:00:50;8.30;99.90
57652;DHT22;43480;53.116;6.734;2024-02-28T12:03:23;8.40;99.90
57652;DHT22;43480;53.116;6.734;2024-02-28T12:05:49;8.50;99.90
57652;DHT22;43480;53.116;6.734;2024-02-28T12:08:18;8.50;99.90
57652;DHT22;43480;53.116;6.734;2024-02-28T12:10:45;8.50;99.90
57652;DHT22;43480;53.116;6.734;2024-02-28T12:13:11;8.50;99.90
57652;DHT22;43480;53.116;6.734;2024-02-28T12:15:39;8.50;99.90
57652;DHT22;43480;53.116;6.734;2024-02-28T12:18:10;8.50;99.90
57652;DHT22;43480;53.116;6.734;2024-02-28T12:20:36;8.50;99.90
57652;DHT22;43480;53.116;6.734;2024-02-28T12:23:05;8.50;99.90
57652;DHT22;43480;53.116;6.734;2024-02-28T12:25:31;8.60;99.90
57652;DHT22;43480;53.116;6.734;2024-02-28T12:27:56;8.60;99.90
57652;DHT22;43480;53.116;6.734;2024-02-28T12:30:22;8.70;99.90
57652;DHT22;43480;53.116;6.734;2024-02-28T12:32:47;8.70;99.90
57652;DHT22;43480;53.116;6.734;2024-02-28T12:35:13;8.70;99.90
57652;DHT22;43480;53.116;6.734;2024-02-28T12:37:39;8.80;99.90
57652;DHT22;43480;53.116;6.734;2024-02-28T12:40:05;8.80;99.90
57652;DHT22;43480;53.116;6.734;2024-02-28T12:42:32;8.70;99.90
57652;DHT22;43480;53.116;6.734;2024-02-28T12:44:57;8.70;99.90
57652;DHT22;43480;53.116;6.734;2024-02-28T12:47:23;8.70;99.90
57652;DHT22;43480;53.116;6.734;2024-02-28T12:49:49;8.70;99.90
57652;DHT22;43480;53.116;6.734;2024-02-28T12:52:14;8.70;99.90
57652;DHT22;43480;53.116;6.734;2024-02-28T12:54:40;8.70;99.90
57652;DHT22;43480;53.116;6.734;2024-02-28T12:57:06;8.60;99.90
57652;DHT22;43480;53.116;6.734;2024-02-28T12:59:34;8.60;99.90
57652;DHT22;43480;53.116;6.734;2024-02-28T13:01:59;8.50;99.90
57652;DHT22;43480;53.116;6.734;2024-02-28T13:04:25;8.50;99.90
57652;DHT22;43480;53.116;6.734;2024-02-28T13:06:52;8.50;99.90
57652;DHT22;43480;53.116;6.734;2024-02-28T13:09:19;8.50;99.90
57652;DHT22;43480;53.116;6.734;2024-02-28T13:11:45;8.50;99.90
57652;DHT22;43480;53.116;6.734;2024-02-28T13:14:11;8.50;99.90
57652;DHT22;43480;53.116;6.734;2024-02-28T13:16:36;8.50;99.90
57652;DHT22;43480;53.116;6.734;2024-02-28T13:19:03;8.60;99.90
57652;DHT22;43480;53.116;6.734;2024-02-28T13:21:30;8.60;99.90
57652;DHT22;43480;53.116;6.734;2024-02-28T13:23:58;8.70;99.90
57652;DHT22;43480;53.116;6.734;2024-02-28T13:26:24;8.70;99.90
57652;DHT22;43480;53.116;6.734;2024-02-28T13:28:50;8.60;99.90
57652;DHT22;43480;53.116;6.734;2024-02-28T13:31:15;8.60;99.90
57652;DHT22;43480;53.116;6.734;2024-02-28T13:33:41;8.60;99.90
57652;DHT22;43480;53.116;6.734;2024-02-28T13:36:07;8.60;99.90
57652;DHT22;43480;53.116;6.734;2024-02-28T13:38:33;8.60;99.90
57652;DHT22;43480;53.116;6.734;2024-02-28T13:40:59;8.60;99.90
57652;DHT22;43480;53.116;6.734;2024-02-28T13:43:25;8.50;99.90
57652;DHT22;43480;53.116;6.734;2024-02-28T13:45:51;8.50;99.90
57652;DHT22;43480;53.116;6.734;2024-02-28T13:48:19;8.50;99.90
57652;DHT22;43480;53.116;6.734;2024-02-28T13:50:47;8.50;99.90
57652;DHT22;43480;53.116;6.734;2024-02-28T13:53:14;8.50;99.90
57652;DHT22;43480;53.116;6.734;2024-02-28T13:55:41;8.50;99.90
57652;DHT22;43480;53.116;6.734;2024-02-28T13:58:08;8.50;99.90
57652;DHT22;43480;53.116;6.734;2024-02-28T14:00:36;8.50;99.90
57652;DHT22;43480;53.116;6.734;2024-02-28T14:03:03;8.50;99.90
57652;DHT22;43480;53.116;6.734;2024-02-28T14:05:29;8.40;99.90
57652;DHT22;43480;53.116;6.734;2024-02-28T14:07:55;8.40;99.90
57652;DHT22;43480;53.116;6.734;2024-02-28T14:10:21;8.30;99.90
57652;DHT22;43480;53.116;6.734;2024-02-28T14:12:47;8.30;99.90
57652;DHT22;43480;53.116;6.734;2024-02-28T14:15:13;8.30;99.90
57652;DHT22;43480;53.116;6.734;2024-02-28T14:17:38;8.30;99.90
57652;DHT22;43480;53.116;6.734;2024-02-28T14:20:05;8.30;99.90
57652;DHT22;43480;53.116;6.734;2024-02-28T14:22:32;8.40;99.90
57652;DHT22;43480;53.116;6.734;2024-02-28T14:25:01;8.40;99.90
57652;DHT22;43480;53.116;6.734;2024-02-28T14:27:27;8.30;99.90
57652;DHT22;43480;53.116;6.734;2024-02-28T14:29:55;8.30;99.90
57652;DHT22;43480;53.116;6.734;2024-02-28T14:32:21;8.30;99.90
57652;DHT22;43480;53.116;6.734;2024-02-28T14:34:47;8.20;99.90
57652;DHT22;43480;53.116;6.734;2024-02-28T14:37:14;8.20;99.90
57652;DHT22;43480;53.116;6.734;2024-02-28T14:39:40;8.30;99.90
57652;DHT22;43480;53.116;6.734;2024-02-28T14:42:06;8.30;99.90
57652;DHT22;43480;53.116;6.734;2024-02-28T14:44:34;8.40;99.90
57652;DHT22;43480;53.116;6.734;2024-02-28T14:47:00;8.50;99.90
57652;DHT22;43480;53.116;6.734;2024-02-28T14:49:25;8.50;99.90
57652;DHT22;43480;53.116;6.734;2024-02-28T14:51:51;8.60;99.90
57652;DHT22;43480;53.116;6.734;2024-02-28T14:54:17;8.60;99.90
57652;DHT22;43480;53.116;6.734;2024-02-28T14:56:45;8.60;99.90
57652;DHT22;43480;53.116;6.734;2024-02-28T14:59:11;8.60;99.90
57652;DHT22;43480;53.116;6.734;2024-02-28T15:01:36;8.60;99.90
57652;DHT22;43480;53.116;6.734;2024-02-28T15:04:02;8.60;99.90
57652;DHT22;43480;53.116;6.734;2024-02-28T15:06:28;8.50;99.90
57652;DHT22;43480;53.116;6.734;2024-02-28T15:08:54;8.60;99.90
57652;DHT22;43480;53.116;6.734;2024-02-28T15:11:19;8.50;99.90
57652;DHT22;43480;53.116;6.734;2024-02-28T15:13:45;8.60;99.90
57652;DHT22;43480;53.116;6.734;2024-02-28T15:16:11;8.60;99.90
57652;DHT22;43480;53.116;6.734;2024-02-28T15:18:37;8.60;99.90
57652;DHT22;43480;53.116;6.734;2024-02-28T15:21:03;8.50;99.90
57652;DHT22;43480;53.116;6.734;2024-02-28T15:23:29;8.60;99.90
57652;DHT22;43480;53.116;6.734;2024-02-28T15:25:56;8.50;99.90
57652;DHT22;43480;53.116;6.734;2024-02-28T15:28:22;8.60;99.90
57652;DHT22;43480;53.116;6.734;2024-02-28T15:30:49;8.60;99.90
57652;DHT22;43480;53.116;6.734;2024-02-28T15:33:15;8.50;99.90
57652;DHT22;43480;53.116;6.734;2024-02-28T15:35:41;8.50;99.90
57652;DHT22;43480;53.116;6.734;2024-02-28T15:38:07;8.50;99.90
57652;DHT22;43480;53.116;6.734;2024-02-28T15:40:32;8.50;99.90